• Join FlightAware (Why Join?)
  • Login
  • US Flag 
06:27AM EDT


 

Airport Tracker/Info


-or-


 

Live Flight TrackerFlight Track Log ✈ EJA587P ✈ 31-Jul-2014 ✈ KCOE - KGPI

Flight Track Log - Related Links

Times and Time Zones

All times are in EDT time to prevent confusion due to time zone crossing. See the EJA587P flight status page for this flight to view local times or setup timezone preferences in your user account.

Time Position Orientation Groundspeed Altitude Reporting Facility
EDT Latitude Longitude Course Direction KTS MPH feet Rate Location/Type
10:49AM 47.7656 -116.8486 130° Southeast 150 173 3,700  Level Salt Lake Center
10:50AM 47.7356 -116.7956 130° Southeast 221 254 7,000 1,980 Climbing Salt Lake Center
10:51AM 47.7228 -116.6886 100° East 242 278 7,900 1,440 Climbing Salt Lake Center
10:52AM 47.7536 -116.5511 72° East 281 323 10,000 2,100 Climbing Salt Lake Center
10:53AM 47.7856 -116.4294 69° East 320 368 12,500 2,040 Climbing Seattle Center
10:54AM 47.8192 -116.2986 69° East 336 387 14,500 1,140 Climbing Seattle Center
10:55AM 47.8547 -116.1575 69° East 363 418 14,900 180 Climbing Seattle Center
10:56AM 47.8964 -115.9792 71° East 378 435 14,900 -60 Level Seattle Center
10:57AM 47.9339 -115.8331 69° East 380 437 14,800 -600 Descending Seattle Center
10:58AM 47.9683 -115.6917 70° East 371 427 13,800 -900 Descending Seattle Center
10:59AM 47.9997 -115.5683 69° East 361 415 13,000 -420 Descending Seattle Center
11:00AM 48.0356 -115.4242 70° East 368 423 13,000  Level Seattle Center
11:01AM 48.0778 -115.2494 70° East 368 423 13,000  Level Salt Lake Center
11:02AM 48.1119 -115.1039 71° East 371 427 13,000  Level Salt Lake Center
11:03AM 48.1456 -114.9594 71° East 370 426 13,000 -180 Level Seattle Center
11:04AM 48.1342 -114.8292 97° East 353 406 12,700 -660 Descending Seattle Center
11:05AM 48.0850 -114.7353 128° Southeast 300 345 11,700 -1,200 Descending Salt Lake Center
11:06AM 48.0517 -114.6047 111° Southeast 286 329 10,200 -840 Descending Salt Lake Center
11:07AM 48.0822 -114.5056 65° Northeast 272 313 10,000 -180 Descending Salt Lake Center
11:08AM 48.1272 -114.4408 44° Northeast 239 275 9,900 -960 Descending Salt Lake Center
11:09AM 48.1706 -114.3989 33° Northeast 204 235 8,100 -1,920 Descending Salt Lake Center
11:11AM 48.2383 -114.3308 34° Northeast 171 197 4,300 -2,040 Descending Seattle Center